Time;durP1;ratioP1;P1;durP2;ratioP2;P2;SDS_P1;SDS_P2;PMS_P1;PMS_P2;Temp;Humidity;BMP_temperature;BMP_pressure;BME280_temperature;BME280_humidity;BME280_pressure;Samples;Min_cycle;Max_cycle;Signal;HPM_P1;HPM_P2
2022/03/17 00:00:13;;;;;;;40.40;35.00;;;4.50;99.90;;;;;;4994720;28;20313;-75
2022/03/17 00:02:41;;;;;;;40.00;35.60;;;4.50;99.90;;;;;;4994731;28;20190;-77
2022/03/17 00:05:12;;;;;;;39.00;34.60;;;4.40;99.90;;;;;;4995526;28;20281;-75
2022/03/17 00:07:41;;;;;;;39.03;34.77;;;4.50;99.90;;;;;;4995557;28;20209;-76
2022/03/17 00:10:11;;;;;;;40.80;35.73;;;4.50;99.90;;;;;;4995191;28;20207;-75
2022/03/17 00:12:39;;;;;;;41.60;36.87;;;4.40;99.90;;;;;;4995461;28;20231;-75
2022/03/17 00:15:12;;;;;;;40.60;34.83;;;4.40;99.90;;;;;;4995397;28;20568;-77
2022/03/17 00:17:43;;;;;;;38.87;34.73;;;4.40;99.90;;;;;;4994917;28;20307;-76
2022/03/17 00:20:14;;;;;;;39.13;34.67;;;4.40;99.90;;;;;;4995066;28;20282;-78
2022/03/17 00:22:43;;;;;;;39.13;34.80;;;4.40;99.90;;;;;;4997097;28;20238;-76
2022/03/17 00:25:12;;;;;;;38.53;34.33;;;4.40;99.90;;;;;;5000803;28;20210;-78
2022/03/17 00:27:42;;;;;;;39.73;34.70;;;4.40;99.90;;;;;;5000293;28;20298;-79
2022/03/17 00:30:15;;;;;;;39.43;35.13;;;4.30;99.90;;;;;;5000451;28;20210;-78
2022/03/17 00:32:44;;;;;;;38.60;34.43;;;4.30;99.90;;;;;;5000646;28;20310;-79
2022/03/17 00:37:57;;;;;;;38.70;34.57;;;4.30;99.90;;;;;;4999148;28;20217;-78
2022/03/17 00:40:30;;;;;;;39.30;35.00;;;4.20;99.90;;;;;;4998693;28;20313;-77
2022/03/17 00:42:59;;;;;;;40.23;34.77;;;4.20;99.90;;;;;;4998142;28;20716;-78
2022/03/17 00:45:28;;;;;;;38.40;33.83;;;4.20;99.90;;;;;;4997444;28;20489;-77
2022/03/17 00:47:57;;;;;;;38.40;34.20;;;4.10;99.90;;;;;;4997662;28;20449;-78
2022/03/17 00:50:25;;;;;;;40.57;35.60;;;4.10;99.90;;;;;;4998211;28;20304;-80
2022/03/17 00:52:56;;;;;;;38.73;34.30;;;4.10;99.90;;;;;;4998444;28;20688;-77
2022/03/17 00:55:24;;;;;;;38.90;34.77;;;4.10;99.90;;;;;;4999378;28;20214;-78
2022/03/17 00:57:52;;;;;;;40.00;35.17;;;4.10;99.90;;;;;;4998897;28;20211;-78
2022/03/17 01:00:21;;;;;;;39.10;34.93;;;4.00;99.90;;;;;;4998531;28;20206;-78
2022/03/17 01:02:53;;;;;;;39.53;34.57;;;4.00;99.90;;;;;;4998561;28;20442;-77
2022/03/17 01:05:23;;;;;;;39.50;35.07;;;3.90;99.90;;;;;;4998347;28;20206;-77
2022/03/17 01:07:52;;;;;;;39.87;35.13;;;3.90;99.90;;;;;;4998194;28;20257;-78
2022/03/17 01:10:23;;;;;;;37.87;33.77;;;3.80;99.90;;;;;;4998844;28;20206;-77
2022/03/17 01:12:51;;;;;;;39.23;35.03;;;3.80;99.90;;;;;;4998340;28;20281;-75
2022/03/17 01:15:20;;;;;;;38.97;34.70;;;3.80;99.90;;;;;;4998433;28;20210;-77
2022/03/17 01:17:51;;;;;;;40.33;34.23;;;3.80;99.90;;;;;;4998435;28;20221;-76
2022/03/17 01:20:19;;;;;;;39.47;34.20;;;3.90;99.90;;;;;;4999396;28;20229;-77
2022/03/17 01:22:48;;;;;;;38.87;34.67;;;4.00;99.90;;;;;;4998715;28;20300;-77
2022/03/17 01:25:16;;;;;;;39.83;33.27;;;4.10;99.90;;;;;;4999001;28;20233;-76
2022/03/17 01:27:45;;;;;;;38.80;34.57;;;4.00;99.90;;;;;;4996516;28;20227;-77
2022/03/17 01:30:15;;;;;;;39.07;34.33;;;4.10;99.90;;;;;;4996707;28;20214;-78
2022/03/17 01:32:44;;;;;;;38.77;34.57;;;4.20;99.90;;;;;;4995711;28;20238;-76
2022/03/17 01:35:16;;;;;;;40.97;35.13;;;4.10;99.90;;;;;;4994986;28;20672;-78
2022/03/17 01:37:44;;;;;;;40.57;35.83;;;4.10;99.90;;;;;;4993809;28;20218;-78
2022/03/17 01:40:13;;;;;;;39.20;34.73;;;4.10;99.90;;;;;;4995378;28;20218;-77
2022/03/17 01:42:45;;;;;;;37.83;33.77;;;4.10;99.90;;;;;;4994477;28;20300;-77
2022/03/17 01:45:15;;;;;;;39.40;35.20;;;4.10;99.90;;;;;;4994595;28;20240;-78
2022/03/17 01:47:45;;;;;;;42.53;36.70;;;4.10;99.90;;;;;;4995208;28;20202;-77
2022/03/17 01:50:18;;;;;;;40.57;35.73;;;4.10;99.90;;;;;;4976113;28;20207;-77
2022/03/17 01:52:49;;;;;;;39.37;35.10;;;4.10;99.90;;;;;;4976415;28;20247;-78
2022/03/17 01:55:18;;;;;;;40.10;35.50;;;4.10;99.90;;;;;;4982978;28;20256;-78
2022/03/17 01:57:47;;;;;;;40.20;35.73;;;4.10;99.90;;;;;;4999908;28;20289;-78
2022/03/17 02:00:19;;;;;;;40.37;35.97;;;4.20;99.90;;;;;;5008786;28;20211;-76
2022/03/17 02:02:48;;;;;;;39.80;34.97;;;4.20;99.90;;;;;;5008745;28;20198;-79
2022/03/17 02:05:19;;;;;;;39.93;35.40;;;4.20;99.90;;;;;;5009394;28;20203;-77
2022/03/17 02:07:52;;;;;;;40.23;35.47;;;4.10;99.90;;;;;;5008269;28;20219;-78
2022/03/17 02:10:24;;;;;;;39.77;35.47;;;4.10;99.90;;;;;;5008058;28;20258;-78
2022/03/17 02:13:10;;;;;;;40.67;36.27;;;4.10;99.90;;;;;;5008312;28;20207;-78
2022/03/17 02:15:39;;;;;;;41.43;36.87;;;4.10;99.90;;;;;;5008528;28;20202;-79
2022/03/17 02:18:07;;;;;;;40.20;35.90;;;4.10;99.90;;;;;;5010975;28;20221;-76
2022/03/17 02:20:38;;;;;;;40.83;36.43;;;4.10;99.90;;;;;;5012532;28;20228;-77
2022/03/17 02:25:57;;;;;;;40.00;35.80;;;4.10;99.90;;;;;;5002746;28;20297;-77
2022/03/17 02:28:26;;;;;;;41.87;37.27;;;4.10;99.90;;;;;;4998093;28;20261;-76
2022/03/17 02:30:55;;;;;;;43.10;36.60;;;4.10;99.90;;;;;;4998006;28;20210;-75
2022/03/17 02:33:24;;;;;;;43.43;37.80;;;4.10;99.90;;;;;;4997906;28;20206;-80
2022/03/17 02:35:56;;;;;;;42.67;38.07;;;4.10;99.90;;;;;;4998158;28;20308;-79
2022/03/17 02:38:29;;;;;;;42.93;36.97;;;4.10;99.90;;;;;;4981066;28;20224;-77
2022/03/17 02:40:57;;;;;;;42.80;38.13;;;4.10;99.90;;;;;;4983848;28;20230;-78
2022/03/17 02:43:25;;;;;;;42.97;38.27;;;4.00;99.90;;;;;;4991155;28;20203;-78
2022/03/17 02:45:53;;;;;;;43.57;38.17;;;4.10;99.90;;;;;;4991359;28;20246;-78
2022/03/17 02:48:21;;;;;;;42.33;37.70;;;4.10;99.90;;;;;;5009999;28;20215;-78
2022/03/17 02:50:51;;;;;;;43.37;37.70;;;4.00;99.90;;;;;;5006995;28;20267;-77
2022/03/17 02:53:19;;;;;;;43.23;38.53;;;4.00;99.90;;;;;;5001339;28;20245;-77
2022/03/17 02:55:49;;;;;;;44.80;39.70;;;4.10;99.90;;;;;;4996712;28;20210;-76
2022/03/17 02:58:17;;;;;;;43.43;38.73;;;4.00;99.90;;;;;;4995601;28;20202;-77
2022/03/17 03:00:45;;;;;;;43.10;38.43;;;4.00;99.90;;;;;;4995770;28;20205;-77
2022/03/17 03:03:17;;;;;;;45.90;38.50;;;4.00;99.90;;;;;;4996339;28;20582;-77
2022/03/17 03:05:46;;;;;;;44.70;39.90;;;3.90;99.90;;;;;;4996202;28;20198;-75
2022/03/17 03:08:15;;;;;;;43.57;38.83;;;3.90;99.90;;;;;;4996248;28;20779;-76
2022/03/17 03:10:44;;;;;;;45.60;39.33;;;3.90;99.90;;;;;;4996021;28;20252;-74
2022/03/17 03:13:13;;;;;;;44.20;38.53;;;3.80;99.90;;;;;;4996621;28;20442;-77
2022/03/17 03:15:42;;;;;;;44.03;39.23;;;3.80;99.90;;;;;;4995537;28;20222;-75
2022/03/17 03:18:11;;;;;;;44.40;39.57;;;3.90;99.90;;;;;;4996061;28;20672;-75
2022/03/17 03:20:39;;;;;;;45.60;40.60;;;3.90;99.90;;;;;;4995915;28;20277;-76
2022/03/17 03:23:07;;;;;;;43.80;38.83;;;3.90;99.90;;;;;;4996472;28;20458;-75
2022/03/17 03:25:35;;;;;;;44.77;39.87;;;3.90;99.90;;;;;;4996945;28;20449;-74
2022/03/17 03:28:10;;;;;;;43.47;38.77;;;3.90;99.90;;;;;;4995633;28;20206;-76
2022/03/17 03:30:40;;;;;;;45.30;40.10;;;4.00;99.90;;;;;;4996738;28;20236;-74
2022/03/17 03:33:14;;;;;;;44.90;39.57;;;4.00;99.90;;;;;;4996764;28;20203;-77
2022/03/17 03:38:30;;;;;;;48.77;41.30;;;4.00;99.90;;;;;;4996098;28;20260;-78
2022/03/17 03:41:00;;;;;;;47.30;41.37;;;4.00;99.90;;;;;;4996117;28;20202;-78
2022/03/17 03:43:32;;;;;;;46.03;40.97;;;4.00;99.90;;;;;;5011388;28;20191;-78
2022/03/17 03:46:02;;;;;;;45.77;40.33;;;3.90;99.90;;;;;;5011071;28;20472;-79
2022/03/17 03:48:32;;;;;;;45.60;40.63;;;3.90;99.90;;;;;;5007289;28;20214;-78
2022/03/17 03:51:00;;;;;;;49.10;42.87;;;3.90;99.90;;;;;;5007256;28;20229;-77
2022/03/17 03:54:12;;;;;;;48.13;42.13;;;3.90;99.90;;;;;;5014157;28;20206;-78
2022/03/17 03:56:16;;;;;;;47.20;41.23;;;3.80;99.90;;;;;;4994276;28;20250;-78
2022/03/17 03:58:45;;;;;;;48.87;43.43;;;3.80;99.90;;;;;;5002738;28;20214;-78
2022/03/17 04:01:15;;;;;;;49.70;42.50;;;3.80;99.90;;;;;;4999139;28;20214;-75
2022/03/17 04:03:44;;;;;;;49.20;42.73;;;3.80;99.90;;;;;;4995195;28;20238;-77
2022/03/17 04:06:14;;;;;;;48.83;43.47;;;3.70;99.90;;;;;;4994677;28;20199;-75
2022/03/17 04:08:42;;;;;;;49.03;42.77;;;3.80;99.90;;;;;;4995683;28;20547;-79
2022/03/17 04:11:15;;;;;;;49.70;43.70;;;3.70;99.90;;;;;;5008953;28;20198;-78
2022/03/17 04:13:43;;;;;;;53.17;44.27;;;3.70;99.90;;;;;;5014527;28;20274;-79
2022/03/17 04:16:12;;;;;;;48.37;41.60;;;3.80;99.90;;;;;;5012661;28;20505;-78
2022/03/17 04:18:41;;;;;;;49.57;43.53;;;3.80;99.90;;;;;;5014015;28;20618;-78
2022/03/17 04:21:11;;;;;;;50.50;42.77;;;3.80;99.90;;;;;;5013679;28;20218;-79
2022/03/17 04:23:40;;;;;;;53.70;44.50;;;3.80;99.90;;;;;;5013198;28;20206;-76
2022/03/17 04:26:11;;;;;;;48.83;43.07;;;3.80;99.90;;;;;;5012983;28;20201;-78
2022/03/17 04:28:42;;;;;;;50.27;44.53;;;3.80;99.90;;;;;;5005859;28;20242;-78
2022/03/17 04:31:11;;;;;;;48.83;43.40;;;3.80;99.90;;;;;;5000639;28;20245;-74
2022/03/17 04:33:41;;;;;;;49.27;43.13;;;3.80;99.90;;;;;;4994696;28;20593;-76
2022/03/17 04:36:11;;;;;;;50.27;44.27;;;3.80;99.90;;;;;;4987069;28;20320;-77
2022/03/17 04:38:39;;;;;;;50.80;45.17;;;3.80;99.90;;;;;;4993868;28;20199;-77
2022/03/17 04:41:09;;;;;;;50.17;43.50;;;3.80;99.90;;;;;;4995299;28;20207;-74
2022/03/17 04:43:38;;;;;;;50.07;44.23;;;3.80;99.90;;;;;;4995251;28;20202;-76
2022/03/17 04:46:08;;;;;;;52.57;44.77;;;3.90;99.90;;;;;;4978492;28;20224;-74
2022/03/17 04:48:37;;;;;;;50.93;44.83;;;3.80;99.90;;;;;;4994547;28;20301;-74
2022/03/17 04:51:07;;;;;;;54.10;45.03;;;3.70;99.90;;;;;;4994757;28;20250;-76
2022/03/17 04:53:36;;;;;;;53.03;45.23;;;3.60;99.90;;;;;;4995046;28;20256;-75
2022/03/17 04:56:08;;;;;;;51.30;45.67;;;3.70;99.90;;;;;;4995699;28;20332;-77
2022/03/17 04:58:39;;;;;;;53.37;45.57;;;3.70;99.90;;;;;;4995671;28;20291;-78
2022/03/17 05:01:08;;;;;;;52.67;45.60;;;3.70;99.90;;;;;;5005520;28;20209;-75
2022/03/17 05:03:38;;;;;;;53.53;45.23;;;3.60;99.90;;;;;;4994445;28;20619;-76
2022/03/17 05:06:07;;;;;;;53.20;44.93;;;3.70;99.90;;;;;;4993929;28;20314;-75
2022/03/17 05:08:36;;;;;;;50.77;44.87;;;3.70;99.90;;;;;;4993655;28;20236;-77
2022/03/17 05:11:07;;;;;;;52.77;44.73;;;3.70;99.90;;;;;;4993536;28;20280;-76
2022/03/17 05:13:36;;;;;;;51.73;45.13;;;3.60;99.90;;;;;;4994542;28;20202;-75
2022/03/17 05:16:05;;;;;;;52.33;46.10;;;3.60;99.90;;;;;;4993379;28;20650;-74
2022/03/17 05:18:34;;;;;;;57.67;46.77;;;3.60;99.90;;;;;;4993896;28;20212;-76
2022/03/17 05:21:03;;;;;;;53.20;45.97;;;3.60;99.90;;;;;;4993612;28;20218;-73
2022/03/17 05:23:35;;;;;;;52.60;45.00;;;3.60;99.90;;;;;;4994852;28;20297;-75
2022/03/17 05:26:03;;;;;;;57.03;47.07;;;3.60;99.90;;;;;;4993911;28;20198;-74
2022/03/17 05:28:33;;;;;;;53.90;45.83;;;3.60;99.90;;;;;;4983527;28;20520;-74
2022/03/17 05:31:02;;;;;;;56.13;46.23;;;3.70;99.90;;;;;;4993609;28;20233;-76
2022/03/17 05:33:30;;;;;;;53.20;45.13;;;3.70;99.90;;;;;;4993571;28;20213;-75
2022/03/17 05:36:02;;;;;;;51.40;43.63;;;3.70;99.90;;;;;;4993225;28;20317;-74
2022/03/17 05:38:32;;;;;;;53.23;44.90;;;3.80;99.90;;;;;;4993707;28;20210;-74
2022/03/17 05:41:03;;;;;;;50.33;44.73;;;3.80;99.90;;;;;;4993565;28;20234;-74
2022/03/17 05:43:31;;;;;;;55.33;44.87;;;3.80;99.90;;;;;;4993288;28;20214;-74
2022/03/17 05:45:59;;;;;;;53.10;46.37;;;3.90;99.90;;;;;;4993633;28;20269;-74
2022/03/17 05:48:28;;;;;;;53.37;46.60;;;3.90;99.90;;;;;;4993646;28;20260;-75
2022/03/17 05:50:56;;;;;;;51.00;44.23;;;3.90;99.90;;;;;;4995981;28;20257;-76
2022/03/17 05:53:24;;;;;;;54.93;46.20;;;3.90;99.90;;;;;;4997535;28;20624;-74
2022/03/17 05:55:56;;;;;;;50.87;45.03;;;4.00;99.90;;;;;;4997101;28;20323;-74
2022/03/17 05:58:26;;;;;;;52.47;45.10;;;3.90;99.90;;;;;;4997093;28;20595;-73
2022/03/17 06:00:54;;;;;;;56.77;46.30;;;3.90;99.90;;;;;;4997997;28;20204;-74
2022/03/17 06:03:23;;;;;;;58.23;46.27;;;4.00;99.90;;;;;;4997583;28;20665;-74
2022/03/17 06:05:51;;;;;;;53.23;45.17;;;4.00;99.90;;;;;;4997114;28;20219;-75
2022/03/17 06:08:19;;;;;;;54.70;46.00;;;4.00;99.90;;;;;;4996536;28;20307;-74
2022/03/17 06:10:49;;;;;;;52.57;45.50;;;4.10;99.90;;;;;;4996965;28;20357;-74
2022/03/17 06:13:19;;;;;;;53.93;45.20;;;4.10;99.90;;;;;;4997237;28;20296;-74
2022/03/17 06:15:47;;;;;;;55.03;44.97;;;4.20;99.90;;;;;;4997071;28;20249;-74
2022/03/17 06:18:15;;;;;;;54.47;46.47;;;4.20;99.90;;;;;;4977409;28;20254;-73
2022/03/17 06:20:44;;;;;;;52.80;44.77;;;4.30;99.90;;;;;;4977341;28;20226;-75
2022/03/17 06:23:12;;;;;;;49.70;44.23;;;4.30;99.90;;;;;;4982877;28;20199;-73
2022/03/17 06:25:41;;;;;;;52.03;44.37;;;4.40;99.90;;;;;;4996797;28;20209;-75
2022/03/17 06:28:10;;;;;;;50.27;44.53;;;4.40;99.90;;;;;;4996128;28;20267;-75
2022/03/17 06:30:40;;;;;;;54.07;44.43;;;4.50;99.90;;;;;;4997193;28;20204;-73
2022/03/17 06:33:12;;;;;;;49.73;44.33;;;4.60;99.90;;;;;;4993023;28;20264;-75
2022/03/17 06:35:43;;;;;;;50.33;43.63;;;4.60;99.90;;;;;;4996985;28;20680;-74
2022/03/17 06:38:11;;;;;;;50.37;43.90;;;4.70;99.90;;;;;;4996103;28;20257;-81
2022/03/17 06:40:41;;;;;;;51.53;43.10;;;4.80;99.90;;;;;;4967872;28;20754;-76
2022/03/17 06:43:14;;;;;;;53.50;44.90;;;4.90;99.90;;;;;;4925078;28;23880;-74
2022/03/17 06:45:44;;;;;;;48.00;42.83;;;5.00;99.90;;;;;;4995782;28;20232;-81
2022/03/17 06:48:13;;;;;;;48.83;42.87;;;5.00;99.90;;;;;;4995797;28;20220;-75
2022/03/17 06:50:42;;;;;;;49.27;42.57;;;5.10;99.90;;;;;;4988682;28;20260;-75
2022/03/17 06:53:10;;;;;;;51.23;43.37;;;5.20;99.90;;;;;;4996692;28;20206;-75
2022/03/17 06:55:41;;;;;;;49.03;41.97;;;5.30;99.90;;;;;;4997998;28;20236;-74
2022/03/17 06:58:09;;;;;;;49.87;43.57;;;5.30;99.90;;;;;;4996914;28;20204;-76
2022/03/17 07:00:39;;;;;;;47.37;41.03;;;5.30;99.90;;;;;;4996712;28;20241;-76
2022/03/17 07:03:13;;;;;;;49.00;42.30;;;5.40;99.90;;;;;;5004500;28;20245;-76
2022/03/17 07:05:41;;;;;;;46.67;41.73;;;5.50;99.90;;;;;;5011132;28;20227;-78
2022/03/17 07:08:10;;;;;;;49.13;41.67;;;5.70;99.90;;;;;;5009880;28;20570;-78
2022/03/17 07:10:38;;;;;;;45.70;40.80;;;5.70;99.90;;;;;;5001106;28;20333;-78
2022/03/17 07:13:06;;;;;;;47.57;42.40;;;5.80;99.90;;;;;;4990031;28;20234;-79
2022/03/17 07:15:34;;;;;;;48.30;41.03;;;5.80;99.90;;;;;;4995789;28;20269;-82
2022/03/17 07:18:03;;;;;;;45.43;39.77;;;6.00;99.90;;;;;;4989658;28;20313;-80
2022/03/17 07:20:32;;;;;;;46.37;40.10;;;6.20;99.90;;;;;;4993598;28;20218;-77
2022/03/17 07:23:00;;;;;;;43.87;39.13;;;6.20;99.90;;;;;;4991786;28;20209;-77
2022/03/17 07:25:29;;;;;;;44.20;38.73;;;6.40;99.90;;;;;;4995664;28;20241;-74
2022/03/17 07:27:58;;;;;;;43.10;37.57;;;6.40;99.90;;;;;;4994417;28;20202;-74
2022/03/17 07:30:33;;;;;;;43.40;38.53;;;6.80;99.90;;;;;;4994786;28;20230;-76
2022/03/17 07:33:05;;;;;;;42.03;37.53;;;7.00;99.90;;;;;;4993712;28;20209;-76
2022/03/17 07:35:35;;;;;;;42.70;37.13;;;7.20;99.90;;;;;;4995567;28;20222;-75
2022/03/17 07:38:05;;;;;;;44.80;40.07;;;7.20;99.90;;;;;;4994895;28;20215;-77
2022/03/17 07:40:33;;;;;;;41.83;37.20;;;7.10;99.90;;;;;;4994909;28;20664;-76
2022/03/17 07:43:02;;;;;;;41.57;36.67;;;7.20;99.90;;;;;;4995724;28;20228;-77
2022/03/17 07:45:30;;;;;;;40.60;36.27;;;7.40;99.90;;;;;;5007084;28;20213;-77
2022/03/17 07:48:01;;;;;;;41.67;36.80;;;7.70;99.90;;;;;;5008194;28;20202;-76
2022/03/17 07:50:29;;;;;;;44.55;40.00;;;7.80;99.90;;;;;;5004547;28;20454;-78
2022/03/17 07:52:59;;;;;;;42.40;38.00;;;7.80;99.90;;;;;;5002011;28;20214;-76
2022/03/17 07:55:27;;;;;;;42.63;38.13;;;7.60;99.90;;;;;;4993070;28;20217;-76
2022/03/17 07:57:56;;;;;;;41.70;37.20;;;7.60;99.90;;;;;;4995300;28;20233;-77
2022/03/17 08:00:24;;;;;;;41.27;36.87;;;7.80;99.90;;;;;;4996228;28;20217;-77
2022/03/17 08:02:54;;;;;;;41.90;36.63;;;8.00;99.90;;;;;;4996577;28;20243;-76
2022/03/17 08:05:23;;;;;;;39.77;35.47;;;8.20;99.90;;;;;;4995737;28;20715;-76
2022/03/17 08:07:52;;;;;;;40.63;36.30;;;8.30;99.90;;;;;;4998395;28;20261;-77
2022/03/17 08:10:22;;;;;;;43.13;37.47;;;8.30;99.90;;;;;;4982599;28;20210;-78
2022/03/17 08:12:51;;;;;;;39.13;35.00;;;8.30;99.90;;;;;;4966928;28;20229;-76
2022/03/17 08:15:20;;;;;;;37.70;33.70;;;8.40;99.90;;;;;;4988573;28;20241;-77
2022/03/17 08:17:48;;;;;;;39.27;35.10;;;8.50;99.90;;;;;;4994416;28;20218;-78
2022/03/17 08:20:16;;;;;;;39.40;35.27;;;8.60;99.90;;;;;;4993739;28;20721;-79
2022/03/17 08:22:45;;;;;;;39.23;34.33;;;8.40;99.90;;;;;;4994124;28;20672;-76
2022/03/17 08:25:14;;;;;;;39.53;35.33;;;8.40;99.90;;;;;;4955838;28;20289;-76
2022/03/17 08:27:43;;;;;;;38.13;33.97;;;8.50;99.90;;;;;;5007342;28;20651;-77
2022/03/17 08:30:12;;;;;;;37.97;34.07;;;9.00;99.90;;;;;;4994336;28;20206;-77
2022/03/17 08:32:42;;;;;;;39.07;34.97;;;9.20;99.90;;;;;;4992478;28;20268;-74
2022/03/17 08:35:11;;;;;;;36.43;32.60;;;9.20;99.90;;;;;;4986607;28;20206;-77
2022/03/17 08:37:40;;;;;;;39.37;35.23;;;9.10;99.90;;;;;;4992811;28;20273;-76
2022/03/17 08:40:09;;;;;;;37.50;33.40;;;8.90;99.90;;;;;;4992583;28;20276;-77
2022/03/17 08:42:38;;;;;;;37.47;33.53;;;9.00;99.90;;;;;;4991882;28;20333;-77
2022/03/17 08:50:45;;;;;;;35.47;31.87;;;9.20;99.90;;;;;;4996412;28;20202;-77
2022/03/17 08:53:14;;;;;;;37.67;33.40;;;9.20;99.90;;;;;;4996172;28;20707;-78
2022/03/17 08:55:42;;;;;;;37.00;33.17;;;9.00;99.90;;;;;;4998062;28;20230;-75
2022/03/17 08:58:12;;;;;;;36.87;33.17;;;9.20;99.90;;;;;;4996564;28;20291;-78
2022/03/17 09:00:41;;;;;;;39.85;35.83;;;9.40;99.90;;;;;;4996630;28;20456;-77
2022/03/17 09:03:10;;;;;;;40.00;36.20;;;9.60;99.90;;;;;;5000643;28;20544;-77
2022/03/17 09:05:38;;;;;;;39.72;35.80;;;9.40;99.90;;;;;;4998390;28;20463;-76
2022/03/17 09:08:06;;;;;;;37.23;33.53;;;9.60;99.90;;;;;;4998158;28;20772;-77
2022/03/17 09:10:39;;;;;;;36.40;32.57;;;9.70;99.90;;;;;;4988890;28;20631;-76
2022/03/17 09:13:07;;;;;;;37.03;33.13;;;9.90;99.90;;;;;;4980420;28;20234;-77
2022/03/17 09:15:38;;;;;;;39.30;35.40;;;9.60;99.90;;;;;;4995911;28;20452;-75
2022/03/17 09:18:10;;;;;;;36.03;32.33;;;9.30;99.90;;;;;;4995972;28;20573;-74
2022/03/17 09:20:40;;;;;;;35.73;31.70;;;9.50;99.90;;;;;;4994290;28;20309;-75
2022/03/17 09:23:09;;;;;;;36.80;32.80;;;9.80;99.90;;;;;;4992984;28;20210;-73
2022/03/17 09:25:37;;;;;;;36.73;32.97;;;10.10;99.90;;;;;;4991413;28;20213;-74
2022/03/17 09:28:06;;;;;;;36.23;32.53;;;9.80;99.90;;;;;;4991807;28;20203;-77
2022/03/17 09:30:36;;;;;;;36.87;33.07;;;9.80;99.90;;;;;;4977822;28;20293;-77
2022/03/17 09:33:05;;;;;;;36.73;32.83;;;9.80;99.90;;;;;;4973926;28;20269;-78
2022/03/17 09:35:35;;;;;;;37.73;33.93;;;9.50;99.90;;;;;;4987973;28;20226;-79
2022/03/17 09:38:06;;;;;;;36.87;32.97;;;9.60;99.90;;;;;;4992792;28;20218;-79
2022/03/17 09:40:35;;;;;;;35.57;31.83;;;9.80;99.90;;;;;;4992237;28;20206;-78
2022/03/17 09:43:19;;;;;;;36.33;32.03;;;9.90;99.90;;;;;;4978767;28;20202;-78
2022/03/17 09:45:52;;;;;;;39.42;35.63;;;9.70;99.90;;;;;;4991880;28;20437;-78
2022/03/17 09:48:23;;;;;;;38.45;34.70;;;9.80;99.90;;;;;;4991937;28;20456;-79
2022/03/17 09:50:57;;;;;;;35.03;31.33;;;9.70;99.90;;;;;;4987328;28;20199;-76
2022/03/17 09:53:28;;;;;;;35.13;31.50;;;9.70;99.90;;;;;;4992469;28;20263;-77
2022/03/17 09:56:01;;;;;;;33.40;29.80;;;9.80;99.90;;;;;;4992556;28;20313;-80
2022/03/17 09:58:29;;;;;;;38.20;34.05;;;9.90;99.90;;;;;;4990260;28;20503;-79
2022/03/17 10:00:59;;;;;;;35.97;31.83;;;10.00;99.90;;;;;;4984150;28;20298;-78
2022/03/17 10:03:29;;;;;;;37.10;32.60;;;9.80;99.90;;;;;;4984684;28;20222;-77
2022/03/17 10:06:02;;;;;;;36.50;32.63;;;9.60;99.90;;;;;;4991982;28;20206;-75
2022/03/17 10:08:31;;;;;;;36.40;32.23;;;9.40;99.90;;;;;;4992946;28;20562;-77
2022/03/17 10:11:00;;;;;;;35.33;31.73;;;9.40;99.90;;;;;;4991537;28;20264;-78
2022/03/17 10:13:32;;;;;;;34.67;31.07;;;9.60;99.90;;;;;;4991496;28;20657;-78
2022/03/17 10:16:08;;;;;;;36.20;31.67;;;9.60;99.90;;;;;;4986521;28;20210;-78
2022/03/17 10:18:37;;;;;;;38.10;31.67;;;9.80;99.90;;;;;;4991594;28;20218;-78
2022/03/17 10:21:11;;;;;;;36.13;32.43;;;9.80;99.90;;;;;;4992441;28;20321;-74
2022/03/17 10:23:52;;;;;;;35.80;31.67;;;9.70;99.90;;;;;;4991303;28;20209;-76
2022/03/17 10:26:37;;;;;;;37.53;31.93;;;9.90;99.90;;;;;;4979213;28;20613;-76
2022/03/17 10:29:11;;;;;;;36.33;31.63;;;9.70;99.90;;;;;;4991250;28;20206;-77
2022/03/17 10:31:58;;;;;;;34.83;31.17;;;9.70;99.90;;;;;;4991769;28;20252;-76
2022/03/17 10:34:29;;;;;;;36.50;32.53;;;9.80;99.90;;;;;;4983812;28;20653;-76
2022/03/17 10:37:17;;;;;;;35.17;31.37;;;9.90;99.90;;;;;;4986642;28;20210;-77
2022/03/17 10:39:47;;;;;;;34.87;30.70;;;9.90;99.90;;;;;;4993008;28;20300;-76
2022/03/17 10:42:17;;;;;;;33.07;29.63;;;10.00;99.90;;;;;;4995722;28;20289;-77
2022/03/17 10:44:50;;;;;;;35.43;31.63;;;9.90;99.90;;;;;;4996412;28;20313;-76
2022/03/17 10:47:26;;;;;;;34.90;31.13;;;9.80;99.90;;;;;;4994519;28;20207;-76
2022/03/17 10:50:01;;;;;;;34.80;30.67;;;9.80;99.90;;;;;;4997098;28;20969;-78
2022/03/17 10:52:47;;;;;;;34.70;31.00;;;9.70;99.90;;;;;;4997413;28;20644;-77
2022/03/17 10:55:19;;;;;;;34.07;30.43;;;9.60;99.90;;;;;;5003269;28;20191;-75
2022/03/17 10:57:48;;;;;;;34.63;30.93;;;9.70;99.90;;;;;;4997969;28;20617;-73
2022/03/17 11:00:21;;;;;;;33.13;29.33;;;9.80;99.90;;;;;;5006463;28;20228;-75
2022/03/17 11:02:57;;;;;;;34.33;30.73;;;9.90;99.90;;;;;;5003803;28;20233;-76
2022/03/17 11:05:28;;;;;;;34.03;29.47;;;10.00;99.90;;;;;;4995204;28;20301;-78
2022/03/17 11:07:59;;;;;;;31.93;28.53;;;10.20;99.90;;;;;;4994629;28;20575;-76
2022/03/17 11:10:27;;;;;;;31.87;27.87;;;10.50;99.90;;;;;;4995381;28;20214;-75
2022/03/17 11:12:56;;;;;;;30.70;27.40;;;10.60;99.90;;;;;;4983802;28;20283;-75
2022/03/17 11:15:29;;;;;;;30.17;27.03;;;10.80;99.90;;;;;;4975487;28;20636;-77
2022/03/17 11:18:03;;;;;;;29.73;26.63;;;11.20;99.90;;;;;;4992871;28;20242;-77
2022/03/17 11:20:33;;;;;;;29.97;26.87;;;11.40;99.90;;;;;;4993766;28;20272;-81
2022/03/17 11:23:15;;;;;;;34.60;29.80;;;11.30;99.90;;;;;;4993842;28;20324;-76
2022/03/17 11:25:51;;;;;;;31.30;26.87;;;11.40;99.90;;;;;;4993838;28;20209;-79
2022/03/17 11:28:40;;;;;;;32.57;27.83;;;11.20;99.90;;;;;;4975082;28;20229;-79
2022/03/17 11:31:09;;;;;;;29.30;26.40;;;11.40;99.90;;;;;;4993127;28;20209;-78
2022/03/17 11:33:39;;;;;;;34.63;27.03;;;11.50;99.90;;;;;;4992139;28;20557;-76
2022/03/17 11:36:19;;;;;;;29.53;26.23;;;11.60;99.90;;;;;;4997399;28;20191;-77
2022/03/17 11:39:02;;;;;;;28.90;25.90;;;11.30;99.90;;;;;;4996041;28;20321;-73
2022/03/17 11:41:32;;;;;;;28.87;25.70;;;11.30;99.90;;;;;;4997295;28;20220;-76
2022/03/17 11:44:03;;;;;;;27.53;24.60;;;11.10;99.90;;;;;;4996720;28;20206;-75
2022/03/17 11:46:46;;;;;;;29.30;26.03;;;11.10;99.90;;;;;;4995436;28;20190;-77
2022/03/17 11:49:24;;;;;;;30.47;24.60;;;11.10;99.90;;;;;;4992456;28;20206;-75
2022/03/17 11:51:57;;;;;;;28.10;24.23;;;11.20;99.90;;;;;;4986154;28;20217;-75
2022/03/17 11:54:28;;;;;;;28.83;25.70;;;11.10;99.90;;;;;;4981113;28;20199;-76
2022/03/17 11:56:58;;;;;;;33.17;25.70;;;11.40;99.90;;;;;;4993986;28;20265;-77
2022/03/17 11:59:31;;;;;;;28.83;25.90;;;11.50;99.90;;;;;;4994987;28;20284;-76
2022/03/17 12:01:59;;;;;;;26.30;23.50;;;11.40;99.90;;;;;;4993307;28;20237;-77
2022/03/17 12:04:30;;;;;;;28.30;24.87;;;11.50;99.90;;;;;;4993584;28;20568;-78
2022/03/17 12:07:08;;;;;;;30.03;25.70;;;11.30;99.90;;;;;;4994852;28;20203;-75
2022/03/17 12:09:39;;;;;;;28.33;25.37;;;11.10;99.90;;;;;;4994408;28;20206;-77
2022/03/17 12:12:18;;;;;;;28.73;25.70;;;11.10;99.90;;;;;;4986702;28;20668;-77
2022/03/17 12:14:52;;;;;;;31.03;23.97;;;11.40;99.90;;;;;;4993739;28;20253;-77
2022/03/17 12:17:22;;;;;;;26.63;23.83;;;11.50;99.90;;;;;;4993443;28;20201;-77
2022/03/17 12:20:08;;;;;;;26.40;23.30;;;11.50;99.90;;;;;;4984312;28;20245;-75
2022/03/17 12:22:39;;;;;;;29.25;26.25;;;11.20;99.90;;;;;;4993227;28;20478;-78
2022/03/17 12:25:17;;;;;;;27.47;24.57;;;11.10;99.90;;;;;;4994528;28;20237;-76
2022/03/17 12:27:51;;;;;;;26.30;23.60;;;11.10;99.90;;;;;;4994038;28;20272;-77
2022/03/17 12:30:25;;;;;;;28.70;25.63;;;11.30;99.90;;;;;;4993643;28;20831;-75
2022/03/17 12:32:56;;;;;;;27.70;23.93;;;11.50;99.90;;;;;;4994584;28;20194;-75
2022/03/17 12:35:26;;;;;;;28.07;24.67;;;11.50;99.90;;;;;;4995336;28;20229;-76
2022/03/17 12:37:59;;;;;;;30.37;23.37;;;11.30;99.90;;;;;;4995933;28;20289;-75
2022/03/17 12:40:37;;;;;;;30.77;24.00;;;11.50;99.90;;;;;;4997996;28;20227;-76
2022/03/17 12:43:13;;;;;;;30.90;24.00;;;11.40;99.90;;;;;;4976340;28;20222;-79
2022/03/17 12:45:42;;;;;;;26.47;23.77;;;11.30;99.90;;;;;;4993135;28;20207;-76
2022/03/17 12:48:12;;;;;;;31.20;23.13;;;11.10;99.90;;;;;;4993182;28;20627;-79
2022/03/17 12:50:41;;;;;;;30.77;24.47;;;11.10;99.90;;;;;;4994094;28;20293;-78
2022/03/17 12:53:10;;;;;;;35.77;24.83;;;11.10;99.90;;;;;;4993771;28;20215;-73
2022/03/17 12:55:40;;;;;;;30.67;24.60;;;11.10;99.90;;;;;;4993156;28;20332;-77
2022/03/17 12:58:14;;;;;;;29.43;25.87;;;11.20;99.90;;;;;;4991287;28;20602;-77
2022/03/17 13:00:43;;;;;;;29.67;24.93;;;11.20;99.90;;;;;;4992115;28;20225;-80
2022/03/17 13:03:17;;;;;;;32.23;25.40;;;11.20;99.90;;;;;;4992829;28;20261;-77
2022/03/17 13:08:38;;;;;;;30.73;24.33;;;11.00;99.90;;;;;;4990438;28;20610;-77